createdAt,value
2023-10-23T00:01:45.707Z,71.11
2023-10-23T00:04:13.140Z,71.22
2023-10-23T00:06:40.655Z,71.66
2023-10-23T00:09:07.995Z,72.18
2023-10-23T00:11:35.352Z,72.16
2023-10-23T00:14:02.656Z,72.19
2023-10-23T00:16:30.078Z,72.87
2023-10-23T00:18:58.810Z,73.30
2023-10-23T00:21:26.241Z,74.96
2023-10-23T00:23:53.581Z,75.01
2023-10-23T00:26:20.996Z,75.97
2023-10-23T00:28:49.238Z,76.80
2023-10-23T00:31:16.836Z,77.26
2023-10-23T00:33:44.326Z,77.95
2023-10-23T00:36:13.059Z,77.10
2023-10-23T00:38:40.365Z,76.80
2023-10-23T00:41:07.672Z,76.18
2023-10-23T00:43:34.989Z,78.26
2023-10-23T00:46:06.511Z,76.82
2023-10-23T00:48:34.047Z,75.50
2023-10-23T00:51:02.863Z,74.60
2023-10-23T00:53:36.677Z,74.13
2023-10-23T00:56:05.302Z,74.54
2023-10-23T00:58:33.291Z,75.42
2023-10-23T01:01:02.886Z,74.70
2023-10-23T01:03:30.707Z,75.49
2023-10-23T01:05:58.064Z,75.39
2023-10-23T01:08:26.208Z,74.52
2023-10-23T01:10:54.950Z,74.25
2023-10-23T01:13:22.513Z,74.51
2023-10-23T01:15:49.846Z,74.82
2023-10-23T01:18:17.173Z,75.68
2023-10-23T01:20:44.636Z,75.36
2023-10-23T01:23:12.305Z,76.23
2023-10-23T01:25:41.091Z,76.77
2023-10-23T01:28:08.540Z,75.47
2023-10-23T01:30:35.889Z,75.71
2023-10-23T01:33:03.380Z,74.91
2023-10-23T01:35:30.821Z,75.38
2023-10-23T01:37:58.128Z,74.65
2023-10-23T01:40:25.413Z,74.73
2023-10-23T01:42:54.132Z,74.95
2023-10-23T01:45:21.569Z,75.79
2023-10-23T01:47:48.925Z,75.74
2023-10-23T01:50:16.427Z,76.43
2023-10-23T01:52:43.756Z,75.42
2023-10-23T01:55:11.034Z,74.15
2023-10-23T01:57:38.436Z,74.61
2023-10-23T02:00:08.623Z,74.20
2023-10-23T02:02:36.027Z,75.26
2023-10-23T02:05:03.877Z,76.81
2023-10-23T02:07:31.170Z,74.95
2023-10-23T02:09:58.560Z,74.87
2023-10-23T02:12:25.928Z,74.71
2023-10-23T02:14:53.289Z,74.48
2023-10-23T02:17:22.067Z,74.48
2023-10-23T02:19:49.442Z,75.04
2023-10-23T02:22:16.781Z,76.03
2023-10-23T02:24:44.128Z,75.25
2023-10-23T02:27:11.457Z,74.67
2023-10-23T02:29:38.756Z,74.14
2023-10-23T02:32:06.607Z,75.88
2023-10-23T02:34:35.640Z,77.54
2023-10-23T02:37:03.358Z,79.08
2023-10-23T02:39:30.778Z,76.77
2023-10-23T02:41:58.134Z,75.91
2023-10-23T02:44:26.449Z,75.39
2023-10-23T02:46:53.773Z,74.85
2023-10-23T02:49:21.099Z,74.78
2023-10-23T02:51:49.871Z,74.50
2023-10-23T02:54:17.234Z,73.97
2023-10-23T02:56:44.585Z,73.96
2023-10-23T02:59:12.161Z,74.11
2023-10-23T03:01:39.500Z,75.21
2023-10-23T03:04:07.038Z,75.06
2023-10-23T03:06:34.430Z,75.28
2023-10-23T03:09:03.365Z,74.71
2023-10-23T03:11:30.684Z,74.46
2023-10-23T03:13:57.984Z,74.14
2023-10-23T03:16:25.343Z,74.74
2023-10-23T03:18:52.769Z,74.70
2023-10-23T03:21:20.204Z,74.97
2023-10-23T03:23:47.566Z,74.71
2023-10-23T03:26:16.309Z,75.00
2023-10-23T03:28:43.593Z,74.87
2023-10-23T03:31:10.990Z,74.73
2023-10-23T03:33:38.303Z,75.22
2023-10-23T03:36:06.200Z,75.08
2023-10-23T03:38:33.502Z,75.15
2023-10-23T03:41:01.071Z,74.72
2023-10-23T03:43:29.816Z,75.26
2023-10-23T03:45:57.202Z,75.71
2023-10-23T03:48:24.552Z,75.44
2023-10-23T03:50:52.038Z,75.51
2023-10-23T03:53:19.359Z,76.75
2023-10-23T03:55:46.665Z,75.95
2023-10-23T03:58:13.976Z,76.24
2023-10-23T04:00:42.695Z,76.22
2023-10-23T04:03:10.068Z,76.45
2023-10-23T04:05:40.356Z,75.74
2023-10-23T04:08:07.718Z,75.58
2023-10-23T04:10:35.053Z,76.00
2023-10-23T04:13:02.469Z,76.76
2023-10-23T04:15:29.801Z,76.40
2023-10-23T04:17:58.533Z,76.76
2023-10-23T04:20:25.902Z,75.65
2023-10-23T04:22:53.196Z,75.95
2023-10-23T04:25:20.487Z,77.49
2023-10-23T04:27:47.815Z,78.13
2023-10-23T04:30:15.172Z,78.00
2023-10-23T04:32:42.480Z,78.37
2023-10-23T04:35:11.192Z,79.28
2023-10-23T04:37:38.474Z,79.53
2023-10-23T04:40:07.487Z,79.06
2023-10-23T04:42:34.819Z,78.95
2023-10-23T04:45:02.146Z,79.77
2023-10-23T04:47:29.483Z,80.37
2023-10-23T04:49:56.889Z,79.95
2023-10-23T04:52:25.626Z,79.69
2023-10-23T04:54:53.774Z,79.93
2023-10-23T04:57:21.160Z,79.92
2023-10-23T04:59:48.461Z,80.32
2023-10-23T05:02:15.744Z,81.18
2023-10-23T05:04:43.128Z,81.42
2023-10-23T05:07:10.455Z,81.05
2023-10-23T05:09:39.371Z,80.02
2023-10-23T05:12:07.521Z,79.60
2023-10-23T05:14:34.845Z,79.22
2023-10-23T05:17:02.206Z,80.14
2023-10-23T05:19:29.488Z,80.26
2023-10-23T05:21:56.788Z,80.15
2023-10-23T05:24:24.116Z,80.25
2023-10-23T05:26:52.894Z,80.16
2023-10-23T05:29:20.180Z,80.49
2023-10-23T05:31:48.158Z,79.43
2023-10-23T05:34:15.549Z,79.47
2023-10-23T05:36:42.864Z,79.41
2023-10-23T05:39:10.164Z,79.39
2023-10-23T05:41:37.458Z,79.72
2023-10-23T05:44:06.369Z,79.99
2023-10-23T05:46:33.731Z,79.86
2023-10-23T05:49:01.081Z,78.95
2023-10-23T05:51:28.431Z,78.62
2023-10-23T05:53:57.505Z,78.44
2023-10-23T05:56:24.885Z,78.86
2023-10-23T05:58:52.320Z,78.43
2023-10-23T06:01:21.073Z,78.18
2023-10-23T06:03:48.438Z,77.98
2023-10-23T06:06:15.768Z,78.85
2023-10-23T06:08:43.106Z,78.32
2023-10-23T06:11:12.199Z,78.02
2023-10-23T06:13:39.938Z,77.10
2023-10-23T06:16:07.894Z,78.03
2023-10-23T06:18:38.060Z,77.52
2023-10-23T06:21:06.332Z,77.07
2023-10-23T06:23:34.061Z,77.15
2023-10-23T06:26:01.784Z,76.36
2023-10-23T06:28:29.099Z,76.32
2023-10-23T06:30:56.525Z,77.11
2023-10-23T06:33:23.866Z,77.25
2023-10-23T06:35:59.072Z,78.01
2023-10-23T06:38:26.573Z,77.28
2023-10-23T06:40:53.913Z,78.10
2023-10-23T06:43:22.243Z,78.65
2023-10-23T06:46:01.602Z,77.98
2023-10-23T06:48:30.476Z,77.89
2023-10-23T06:50:59.928Z,77.47
2023-10-23T06:53:27.363Z,77.45
2023-10-23T06:55:55.728Z,78.64
2023-10-23T06:58:23.317Z,78.00
2023-10-23T07:00:50.672Z,78.55
2023-10-23T07:03:18.257Z,79.01
2023-10-23T07:05:45.815Z,78.95
2023-10-23T07:08:14.533Z,78.64
2023-10-23T07:10:41.899Z,77.74
2023-10-23T07:13:21.446Z,77.95
2023-10-23T07:15:50.622Z,78.19
2023-10-23T07:18:18.185Z,77.71
2023-10-23T07:20:53.182Z,78.32
2023-10-23T07:23:21.911Z,77.74
2023-10-23T07:25:49.258Z,78.45
2023-10-23T07:28:16.545Z,77.90
2023-10-23T07:30:43.846Z,77.77
2023-10-23T07:33:11.155Z,77.66
2023-10-23T07:35:52.625Z,76.72
2023-10-23T07:38:21.860Z,76.38
2023-10-23T07:40:49.222Z,76.54
2023-10-23T07:43:16.635Z,75.66
2023-10-23T07:45:44.011Z,75.20
2023-10-23T07:48:11.402Z,74.64
2023-10-23T07:50:38.718Z,74.74
2023-10-23T07:53:06.006Z,75.91
2023-10-23T07:55:34.705Z,74.68
2023-10-23T07:58:02.114Z,75.27
2023-10-23T08:00:29.434Z,75.77
2023-10-23T08:02:56.821Z,74.84
2023-10-23T08:05:24.425Z,75.87
2023-10-23T08:07:51.821Z,75.39
2023-10-23T08:10:19.207Z,75.86
2023-10-23T08:12:47.907Z,75.66
2023-10-23T08:15:15.325Z,75.29
2023-10-23T08:17:43.177Z,75.25
2023-10-23T08:20:11.297Z,75.33
2023-10-23T08:22:38.804Z,75.30
2023-10-23T08:25:07.088Z,75.49
2023-10-23T08:27:34.418Z,75.83
2023-10-23T08:30:03.327Z,75.77
2023-10-23T08:32:41.418Z,76.37
2023-10-23T08:35:17.851Z,75.47
2023-10-23T08:37:45.303Z,74.72
2023-10-23T08:40:13.294Z,73.86
2023-10-23T08:42:41.406Z,73.53
2023-10-23T08:45:10.606Z,73.02
2023-10-23T08:47:37.920Z,72.29
2023-10-23T08:50:07.359Z,72.69
2023-10-23T08:52:39.630Z,72.62
2023-10-23T08:55:12.249Z,72.14
2023-10-23T08:57:42.689Z,72.38
2023-10-23T09:00:12.921Z,73.06
2023-10-23T09:02:52.137Z,72.64
2023-10-23T09:05:21.887Z,72.90
2023-10-23T09:07:50.242Z,72.76
2023-10-23T09:10:17.699Z,71.56
2023-10-23T09:12:45.062Z,71.41
2023-10-23T09:15:17.871Z,70.61
2023-10-23T09:17:45.790Z,70.54
2023-10-23T09:20:26.562Z,71.06
2023-10-23T09:22:56.100Z,70.75
2023-10-23T09:25:24.853Z,70.08
2023-10-23T09:27:53.430Z,69.74
2023-10-23T09:30:22.168Z,68.43
2023-10-23T09:32:52.562Z,69.08
2023-10-23T09:35:20.610Z,68.91
2023-10-23T09:37:48.119Z,68.71
2023-10-23T09:40:16.013Z,66.77
2023-10-23T09:42:43.499Z,68.27
2023-10-23T09:45:11.475Z,67.45
2023-10-23T09:47:40.698Z,67.05
2023-10-23T09:50:08.903Z,65.13
2023-10-23T09:52:37.550Z,66.70
2023-10-23T09:55:06.466Z,66.24
2023-10-23T09:57:36.143Z,66.88
2023-10-23T10:00:05.612Z,68.07
2023-10-23T10:02:36.721Z,69.49
2023-10-23T10:05:08.577Z,68.16
2023-10-23T10:07:46.142Z,67.88
2023-10-23T10:10:13.898Z,68.32
2023-10-23T10:12:43.225Z,67.92
2023-10-23T10:15:10.973Z,67.36
2023-10-23T10:17:40.854Z,67.86
2023-10-23T10:20:12.746Z,68.82
2023-10-23T10:22:42.587Z,68.37
2023-10-23T10:25:12.134Z,67.82
2023-10-23T10:27:39.514Z,67.57
2023-10-23T10:30:27.724Z,68.62
2023-10-23T10:34:18.474Z,68.17
2023-10-23T10:35:50.637Z,67.30
2023-10-23T10:38:22.570Z,67.55
2023-10-23T10:40:57.147Z,67.67
2023-10-23T10:43:25.540Z,67.70
2023-10-23T10:45:52.928Z,66.95
2023-10-23T10:48:20.290Z,69.25
2023-10-23T10:50:47.700Z,67.68
2023-10-23T10:53:16.480Z,67.14
2023-10-23T10:55:45.520Z,66.26
2023-10-23T10:58:13.825Z,65.93
2023-10-23T11:00:41.292Z,66.52
2023-10-23T11:03:09.090Z,65.99
2023-10-23T11:05:37.379Z,66.21
2023-10-23T11:08:05.878Z,66.27
2023-10-23T11:10:34.784Z,65.02
2023-10-23T11:13:02.644Z,65.46
2023-10-23T11:15:30.101Z,65.31
2023-10-23T11:17:57.611Z,64.85
2023-10-23T11:20:25.934Z,64.69
2023-10-23T11:22:53.217Z,65.26
2023-10-23T11:25:20.553Z,64.77
2023-10-23T11:27:52.662Z,62.73
2023-10-23T11:30:24.662Z,63.76
2023-10-23T11:32:52.106Z,63.62
2023-10-23T11:35:19.537Z,63.08
2023-10-23T11:37:46.898Z,62.91
2023-10-23T11:40:21.376Z,63.34
2023-10-23T11:42:50.912Z,61.86
2023-10-23T11:45:20.029Z,60.68
2023-10-23T11:47:50.075Z,59.47
2023-10-23T11:50:21.086Z,59.73
2023-10-23T11:52:50.416Z,58.36
2023-10-23T11:55:19.551Z,56.53
2023-10-23T11:57:47.767Z,55.25
2023-10-23T12:00:16.740Z,55.97
2023-10-23T12:02:46.762Z,54.96
2023-10-23T12:05:16.141Z,54.52
2023-10-23T12:07:45.966Z,54.24
2023-10-23T12:10:14.489Z,53.32
2023-10-23T12:12:43.177Z,51.62
2023-10-23T12:15:14.333Z,52.66
2023-10-23T12:17:42.666Z,52.21
2023-10-23T12:20:12.784Z,50.82
2023-10-23T12:22:41.722Z,50.87
2023-10-23T12:25:10.544Z,51.32
2023-10-23T12:27:45.324Z,51.63
2023-10-23T12:30:14.045Z,50.21
2023-10-23T12:33:14.833Z,50.38
2023-10-23T12:35:32.619Z,50.85
2023-10-23T12:38:00.037Z,50.30
2023-10-23T12:40:30.946Z,50.41
2023-10-23T12:43:00.649Z,50.10
2023-10-23T12:45:28.010Z,49.88
2023-10-23T12:47:55.416Z,49.99
2023-10-23T12:50:22.786Z,49.72
2023-10-23T12:52:51.526Z,49.46
2023-10-23T12:55:18.881Z,49.65
2023-10-23T12:57:46.196Z,49.84
2023-10-23T13:00:14.267Z,50.22
2023-10-23T13:02:41.649Z,49.21
2023-10-23T13:05:09.324Z,49.61
2023-10-23T13:07:36.775Z,50.05
2023-10-23T13:10:06.614Z,48.56
2023-10-23T13:12:34.020Z,49.01
2023-10-23T13:15:01.401Z,48.79
2023-10-23T13:17:28.841Z,48.97
2023-10-23T13:19:56.217Z,48.09
2023-10-23T13:22:23.665Z,49.10
2023-10-23T13:24:51.037Z,49.06
2023-10-23T13:27:19.716Z,48.02
2023-10-23T13:29:47.030Z,48.20
2023-10-23T13:32:15.690Z,48.13
2023-10-23T13:34:43.318Z,47.98
2023-10-23T13:37:12.616Z,47.72
2023-10-23T13:39:39.990Z,47.49
2023-10-23T13:42:07.401Z,46.06
2023-10-23T13:44:36.067Z,46.76
2023-10-23T13:47:03.999Z,46.37
2023-10-23T13:49:31.467Z,45.62
2023-10-23T13:51:58.865Z,46.02
2023-10-23T13:54:26.226Z,45.42
2023-10-23T13:56:53.531Z,45.83
2023-10-23T13:59:20.858Z,45.83
2023-10-23T14:01:49.604Z,45.73
2023-10-23T14:04:17.013Z,45.29
2023-10-23T14:06:44.521Z,44.96
2023-10-23T14:09:43.971Z,45.24
2023-10-23T14:12:01.833Z,46.15
2023-10-23T14:14:29.959Z,46.74
2023-10-23T14:16:59.579Z,46.22
2023-10-23T14:19:38.758Z,45.70
2023-10-23T14:22:10.698Z,45.40
2023-10-23T14:24:38.269Z,45.88
2023-10-23T14:27:05.764Z,46.40
2023-10-23T14:29:33.052Z,46.81
2023-10-23T14:32:01.855Z,47.39
2023-10-23T14:34:29.489Z,48.20
2023-10-23T14:36:57.078Z,49.08
2023-10-23T14:39:25.672Z,48.63
2023-10-23T14:41:53.115Z,48.57
2023-10-23T14:44:20.430Z,47.98
2023-10-23T14:46:49.605Z,48.70
2023-10-23T14:49:18.491Z,48.68
2023-10-23T14:51:45.829Z,49.99
2023-10-23T14:54:13.135Z,49.67
2023-10-23T14:56:40.444Z,49.90
2023-10-23T14:59:07.781Z,50.03
2023-10-23T15:01:35.221Z,50.76
2023-10-23T15:04:02.701Z,51.23
2023-10-23T15:06:31.491Z,52.18
2023-10-23T15:08:58.820Z,52.23
2023-10-23T15:11:26.173Z,52.90
2023-10-23T15:13:53.615Z,52.77
2023-10-23T15:16:21.025Z,53.27
2023-10-23T15:18:48.464Z,53.77
2023-10-23T15:21:15.759Z,54.08
2023-10-23T15:23:44.435Z,53.54
2023-10-23T15:26:11.925Z,54.09
2023-10-23T15:28:39.386Z,53.77
2023-10-23T15:31:07.154Z,54.06
2023-10-23T15:33:35.323Z,54.26
2023-10-23T15:36:03.545Z,53.82
2023-10-23T15:38:31.314Z,53.16
2023-10-23T15:41:07.427Z,53.37
2023-10-23T15:43:35.378Z,53.28
2023-10-23T15:46:03.281Z,53.33
2023-10-23T15:48:31.190Z,53.24
2023-10-23T15:50:59.765Z,53.33
2023-10-23T15:53:28.079Z,53.00
2023-10-23T15:55:56.510Z,54.12
2023-10-23T15:58:25.391Z,54.52
2023-10-23T16:00:53.298Z,54.34
2023-10-23T16:03:21.072Z,54.31
2023-10-23T16:05:48.539Z,53.83
2023-10-23T16:08:16.024Z,54.45
2023-10-23T16:10:43.589Z,55.45
2023-10-23T16:13:10.944Z,54.33
2023-10-23T16:15:39.741Z,54.75
2023-10-23T16:18:07.125Z,55.15
2023-10-23T16:20:34.472Z,54.72
2023-10-23T16:23:01.770Z,54.92
2023-10-23T16:25:29.090Z,55.02
2023-10-23T16:27:56.449Z,55.20
2023-10-23T16:30:23.973Z,55.21
2023-10-23T16:32:54.084Z,55.24
2023-10-23T16:35:21.680Z,54.91
2023-10-23T16:37:48.997Z,55.88
2023-10-23T16:40:16.575Z,56.11
2023-10-23T16:42:43.881Z,55.95
2023-10-23T16:45:11.427Z,56.09
2023-10-23T16:47:39.085Z,55.74
2023-10-23T16:50:09.236Z,56.41
2023-10-23T16:52:37.043Z,56.75
2023-10-23T16:55:05.866Z,57.23
2023-10-23T16:57:33.330Z,58.46
2023-10-23T17:00:00.637Z,58.07
2023-10-23T17:02:28.131Z,57.83
2023-10-23T17:04:55.617Z,58.30
2023-10-23T17:07:24.332Z,58.50
2023-10-23T17:09:51.664Z,59.15
2023-10-23T17:12:18.944Z,59.36
2023-10-23T17:14:49.309Z,59.90
2023-10-23T17:17:16.705Z,62.40
2023-10-23T17:19:46.758Z,61.74
2023-10-23T17:22:14.289Z,61.23
2023-10-23T17:24:42.968Z,62.23
2023-10-23T17:27:10.258Z,61.95
2023-10-23T17:29:37.818Z,61.50
2023-10-23T17:32:06.636Z,61.72
2023-10-23T17:34:34.030Z,61.38
2023-10-23T17:37:01.537Z,61.13
2023-10-23T17:39:28.826Z,60.87
2023-10-23T17:41:57.497Z,62.04
2023-10-23T17:44:24.792Z,62.67
2023-10-23T17:46:52.291Z,62.52
2023-10-23T17:49:19.876Z,62.81
2023-10-23T17:51:47.204Z,63.01
2023-10-23T17:54:14.540Z,62.92
2023-10-23T17:56:41.840Z,62.51
2023-10-23T17:59:10.610Z,62.00
2023-10-23T18:01:40.160Z,62.36
2023-10-23T18:04:11.265Z,62.49
2023-10-23T18:06:39.434Z,62.48
2023-10-23T18:09:06.819Z,62.67
2023-10-23T18:11:34.218Z,63.53
2023-10-23T18:14:01.651Z,63.19
2023-10-23T18:16:30.371Z,63.53
2023-10-23T18:18:57.786Z,63.40
2023-10-23T18:21:25.214Z,63.31
2023-10-23T18:23:52.843Z,63.40
2023-10-23T18:26:20.167Z,63.83
2023-10-23T18:28:47.467Z,67.19
2023-10-23T18:31:14.847Z,67.17
2023-10-23T18:33:43.675Z,66.64
2023-10-23T18:36:14.450Z,66.38
2023-10-23T18:38:41.978Z,66.15
2023-10-23T18:41:09.279Z,66.25
2023-10-23T18:43:36.715Z,65.83
2023-10-23T18:46:04.369Z,66.07
2023-10-23T18:48:31.839Z,66.27
2023-10-23T18:51:00.985Z,66.48
2023-10-23T18:53:28.576Z,65.86
2023-10-23T18:55:55.894Z,65.72
2023-10-23T18:58:23.261Z,65.57
2023-10-23T19:00:50.815Z,66.68
2023-10-23T19:03:18.530Z,67.51
2023-10-23T19:05:45.881Z,67.34
2023-10-23T19:08:14.559Z,68.53
2023-10-23T19:10:41.908Z,69.13
2023-10-23T19:13:09.232Z,69.93
2023-10-23T19:15:36.558Z,70.82
2023-10-23T19:18:04.104Z,69.13
2023-10-23T19:20:31.457Z,70.14
2023-10-23T19:22:58.744Z,70.02
2023-10-23T19:25:27.481Z,68.86
2023-10-23T19:27:54.817Z,70.01
2023-10-23T19:30:22.107Z,70.35
2023-10-23T19:32:50.112Z,71.16
2023-10-23T19:35:18.015Z,70.21
2023-10-23T19:37:45.810Z,69.27
2023-10-23T19:40:14.389Z,69.10
2023-10-23T19:42:51.711Z,68.87
2023-10-23T19:45:20.003Z,69.40
2023-10-23T19:47:47.854Z,69.58
2023-10-23T19:50:16.285Z,70.04
2023-10-23T19:52:44.835Z,69.58
2023-10-23T19:55:43.591Z,69.89
2023-10-23T19:58:03.264Z,70.32
2023-10-23T20:00:30.839Z,69.39
2023-10-23T20:02:58.134Z,70.93
2023-10-23T20:05:25.513Z,70.56
2023-10-23T20:07:52.823Z,69.99
2023-10-23T20:10:20.234Z,70.74
2023-10-23T20:12:47.556Z,70.74
2023-10-23T20:15:16.292Z,70.25
2023-10-23T20:17:43.624Z,71.10
2023-10-23T20:20:12.008Z,72.51
2023-10-23T20:22:40.342Z,72.72
2023-10-23T20:25:09.195Z,73.37
2023-10-23T20:27:37.476Z,72.42
2023-10-23T20:30:06.355Z,71.84
2023-10-23T20:32:35.677Z,72.09
2023-10-23T20:35:03.223Z,72.18
2023-10-23T20:37:30.573Z,72.63
2023-10-23T20:39:58.152Z,73.07
2023-10-23T20:42:25.615Z,72.93
2023-10-23T20:44:53.241Z,74.12
2023-10-23T20:47:20.566Z,74.67
2023-10-23T20:49:49.236Z,74.89
2023-10-23T20:52:16.566Z,74.65
2023-10-23T20:54:43.975Z,74.32
2023-10-23T20:57:11.260Z,73.71
2023-10-23T20:59:38.709Z,75.06
2023-10-23T21:02:06.750Z,75.01
2023-10-23T21:04:34.575Z,75.65
2023-10-23T21:07:03.934Z,75.25
2023-10-23T21:09:31.680Z,76.58
2023-10-23T21:12:00.136Z,77.05
2023-10-23T21:14:27.645Z,76.18
2023-10-23T21:16:55.141Z,77.10
2023-10-23T21:19:22.826Z,76.77
2023-10-23T21:21:50.435Z,76.62
2023-10-23T21:24:19.375Z,76.13
2023-10-23T21:26:46.905Z,76.19
2023-10-23T21:29:17.261Z,75.17
2023-10-23T21:31:45.280Z,75.43
2023-10-23T21:34:12.866Z,75.52
2023-10-23T21:36:40.294Z,76.02
2023-10-23T21:39:07.595Z,76.02
2023-10-23T21:41:36.925Z,76.86
2023-10-23T21:44:04.890Z,76.39
2023-10-23T21:46:32.331Z,77.60
2023-10-23T21:49:01.125Z,79.19
2023-10-23T21:51:28.624Z,79.93
2023-10-23T21:53:56.930Z,81.39
2023-10-23T21:57:16.494Z,81.42
2023-10-23T21:59:15.419Z,81.76
2023-10-23T22:01:43.465Z,81.56
2023-10-23T22:04:11.216Z,82.02
2023-10-23T22:06:39.395Z,81.08
2023-10-23T22:09:07.405Z,80.32
2023-10-23T22:11:35.294Z,79.88
2023-10-23T22:14:03.167Z,80.39
2023-10-23T22:16:31.913Z,80.76
2023-10-23T22:18:59.245Z,81.30
2023-10-23T22:21:26.522Z,81.55
2023-10-23T22:23:53.817Z,80.33
2023-10-23T22:26:21.120Z,79.98
2023-10-23T22:28:48.427Z,80.49
2023-10-23T22:31:15.830Z,79.80
2023-10-23T22:33:44.590Z,79.22
2023-10-23T22:36:11.973Z,80.14
2023-10-23T22:38:39.299Z,79.18
2023-10-23T22:41:06.593Z,79.20
2023-10-23T22:43:33.963Z,78.99
2023-10-23T22:46:03.619Z,78.69
2023-10-23T22:48:31.788Z,77.64
2023-10-23T22:51:01.578Z,76.95
2023-10-23T22:53:29.391Z,76.34
2023-10-23T22:55:59.505Z,76.60
2023-10-23T22:58:29.706Z,76.29
2023-10-23T23:00:57.693Z,77.38
2023-10-23T23:03:25.743Z,77.93
2023-10-23T23:05:54.990Z,78.71
2023-10-23T23:08:25.142Z,79.12
2023-10-23T23:10:52.983Z,78.32
2023-10-23T23:13:20.868Z,78.05
2023-10-23T23:15:49.845Z,78.62
2023-10-23T23:18:19.860Z,79.63
2023-10-23T23:20:50.542Z,79.31
2023-10-23T23:23:17.835Z,79.51
2023-10-23T23:25:46.534Z,80.47
2023-10-23T23:28:13.888Z,80.82
2023-10-23T23:30:41.664Z,81.17
2023-10-23T23:33:09.053Z,82.31
2023-10-23T23:35:36.368Z,82.31
2023-10-23T23:38:03.662Z,82.03
2023-10-23T23:40:31.112Z,81.53
2023-10-23T23:42:59.801Z,81.63
2023-10-23T23:45:27.071Z,82.30
2023-10-23T23:47:54.407Z,81.63
2023-10-23T23:50:21.761Z,81.10
2023-10-23T23:52:49.113Z,81.01
2023-10-23T23:55:16.573Z,81.24
2023-10-23T23:57:43.930Z,81.67
